x

Port Aransas, Tx (ptat2) Weather Station

11:00pm - Wed 17th Sep 2014 All times are CDT. -5 hours from GMT.

  • Wind
    18mph, 21mph gusts
  • Sea Temp 85°f
  • Air Temp 84°f
  • Sea Pressure 1012.6mb
  • Port Aransas, Tx
  • Port Aransas, Tx

More Historic Weather Station data

Upgrade to MSW Pro to gain access to the past 30 days of data for over 8000 Wavebouys and Weather Stations around the globe.

Join Pro

Comparision Forecast

View Surf forecast
   
Wed 09/17 11:00pm 18 21 mph 1012.6mb 85f 84f
10:00pm 21 22 mph 1012.4mb 85f 84f
9:00pm 18 20 mph 1012.2mb 85f 84f
8:00pm 20 22 mph 1012.1mb 85f 84f
7:00pm 16 18 mph 1011.5mb 86f 84f
6:00pm 16 18 mph 1011.7mb 86f 84f
5:00pm 15 16 mph 1012mb 86f 84f
4:00pm 14 16 mph 1012.3mb 85f 84f
3:00pm 13 14 mph 1012.8mb 85f 84f
2:00pm 14 15 mph 1013.5mb 85f 83f
1:00pm 14 15 mph 1014mb 84f 83f
12:00pm 14 16 mph 1014.8mb 84f 83f
11:00am 14 16 mph 1014.9mb 83f 83f
10:00am 14 15 mph 1014.8mb 83f 82f
9:00am 13
mph
1014.5mb 83f 81f
8:00am 8 9 mph 1014.3mb 83f 81f
7:00am 13 14 mph 1014mb 83f 82f
6:00am 16 18 mph 1013.6mb 83f 83f
5:00am 18 21 mph 1013.2mb 83f 83f
4:00am 16 20 mph 1013.7mb 84f 83f
3:00am 18 20 mph 1014.4mb 84f 83f
2:00am 18 20 mph 1014.8mb 84f 83f
1:00am 17 18 mph 1015.3mb 84f 84f
12:00am 18 21 mph 1015.1mb 85f 84f
Tue 09/16 11:00pm 20 21 mph 1015.5mb 85f 83f
10:00pm 21 22 mph 1015mb 85f 83f
9:00pm 16 18 mph 1014.9mb 85f 84f
8:00pm 17 18 mph 1014.4mb 85f 83f
7:00pm 15 17 mph 1014.2mb 85f 83f
6:00pm 15 16 mph 1014.3mb 86f 84f
5:00pm 13 15 mph 1014.2mb 85f 84f
4:00pm 10 13 mph 1014.4mb 85f 83f
3:00pm 10 11 mph 1015.1mb 85f 83f
2:00pm 14 16 mph 1016.1mb 84f 80f
1:00pm 15
mph
1016.6mb 84f 83f
12:00pm 13 14 mph 1017.2mb 84f 83f
11:00am 14 15 mph 1017.2mb 84f 83f
10:00am 11 14 mph 1017.2mb 83f 83f
9:00am 11 14 mph 1016.7mb 83f 82f
8:00am 14 16 mph 1016.1mb 83f 83f
7:00am 20 21 mph 1015.7mb 83f 83f
6:00am 16 17 mph 1015.4mb 83f 83f
5:00am 14 15 mph 1015.5mb 83f 83f
4:00am 13 14 mph 1015.8mb 83f 80f
3:00am 15 16 mph 1015.9mb 83f 83f
2:00am 14 15 mph 1016.2mb 83f 83f
1:00am 14 16 mph 1016.5mb 83f 83f
12:00am 13 15 mph 1016.8mb 83f 84f
Mon 09/15 11:00pm 17 21 mph 1016.8mb 83f 84f
10:00pm 15 16 mph 1017.2mb 83f 83f
9:00pm 16 17 mph 1016.8mb 84f 83f
8:00pm 15 16 mph 1016.2mb 84f 83f
7:00pm 14 15 mph 1016.4mb 84f 83f
6:00pm 11 14 mph 1016.4mb 84f 84f
5:00pm 14 15 mph 1016.3mb 85f 83f
4:00pm 13 14 mph 1016.4mb 84f 83f
3:00pm 14 15 mph 1017mb 84f 82f
2:00pm 14 15 mph 1017.6mb 84f 82f
1:00pm 13 15 mph 1018mb 83f 81f
12:00pm 14 16 mph 1018.6mb 83f 80f
11:00am 14 15 mph 1018.8mb 83f 77f
10:00am 15 17 mph 1018.7mb 83f 76f
9:00am 13 15 mph 1018.8mb 83f 74f
8:00am 11 14 mph 1018.4mb 83f 74f
7:00am 10 11 mph 1018.5mb 83f 73f
6:00am 13 15 mph 1017.9mb 83f 74f
5:00am 11 13 mph 1017.8mb 83f 74f
4:00am 9 10 mph 1018.2mb 83f 74f
3:00am 10 13 mph 1018.5mb 83f 75f
2:00am 11 14 mph 1018.8mb 83f 75f
1:00am 11 14 mph 1018.9mb 83f 75f
12:00am 15 16 mph 1019.2mb 83f 76f
Sun 09/14 11:00pm 17 20 mph 1019.3mb 83f 76f
10:00pm 15 16 mph 1019.5mb 83f 76f
9:00pm 14 15 mph 1019.1mb 83f 76f
8:00pm 14 16 mph 1018.9mb 83f 76f
7:00pm 14 16 mph 1018.4mb 83f 77f
6:00pm 14 15 mph 1018.4mb 83f 77f
5:00pm 17 21 mph 1018.7mb 83f 77f
4:00pm 15 20 mph 1018.7mb 83f 76f
3:00pm 16 20 mph 1019.3mb 83f 76f
2:00pm 20 22 mph 1019.9mb 83f 75f
1:00pm 18 21 mph 1020.6mb 83f 75f
12:00pm 20 22 mph 1020.9mb 83f 75f
11:00am 22 24 mph 1020.7mb 83f 74f
10:00am 20 22 mph 1020.6mb 83f 73f
9:00am 21 23 mph 1020.3mb 83f 72f
8:00am 18 23 mph 1019.7mb 83f 72f
7:00am 17 20 mph 1019.4mb 83f 72f
6:00am 17 21 mph 1018.8mb 84f 72f